sensor_id;sensor_type;location;lat;lon;timestamp;pressure;altitude;pressure_sealevel;temperature;humidity
22000;BME280;11164;48.818;2.322;2023-04-27T00:00:13;100755.28;;;16.30;33.11
22000;BME280;11164;48.818;2.322;2023-04-27T00:02:39;100753.13;;;16.32;32.86
22000;BME280;11164;48.818;2.322;2023-04-27T00:05:05;100758.69;;;16.25;33.15
22000;BME280;11164;48.818;2.322;2023-04-27T00:07:30;100770.16;;;16.27;33.02
22000;BME280;11164;48.818;2.322;2023-04-27T00:09:56;100763.44;;;16.30;33.06
22000;BME280;11164;48.818;2.322;2023-04-27T00:12:21;100759.03;;;16.29;32.89
22000;BME280;11164;48.818;2.322;2023-04-27T00:14:46;100752.41;;;16.25;33.36
22000;BME280;11164;48.818;2.322;2023-04-27T00:17:12;100757.75;;;16.31;33.24
22000;BME280;11164;48.818;2.322;2023-04-27T00:19:37;100753.47;;;16.24;33.43
22000;BME280;11164;48.818;2.322;2023-04-27T00:22:06;100746.47;;;16.16;33.20
22000;BME280;11164;48.818;2.322;2023-04-27T00:24:31;100752.28;;;16.20;33.48
22000;BME280;11164;48.818;2.322;2023-04-27T00:26:56;100747.63;;;16.08;33.51
22000;BME280;11164;48.818;2.322;2023-04-27T00:29:22;100743.16;;;16.14;33.34
22000;BME280;11164;48.818;2.322;2023-04-27T00:31:47;100743.75;;;16.16;33.39
22000;BME280;11164;48.818;2.322;2023-04-27T00:34:12;100744.94;;;16.20;33.49
22000;BME280;11164;48.818;2.322;2023-04-27T00:36:37;100732.66;;;16.18;33.38
22000;BME280;11164;48.818;2.322;2023-04-27T00:39:03;100735.22;;;16.12;33.65
22000;BME280;11164;48.818;2.322;2023-04-27T00:41:30;100720.91;;;16.05;33.58
22000;BME280;11164;48.818;2.322;2023-04-27T00:43:56;100719.56;;;15.96;33.79
22000;BME280;11164;48.818;2.322;2023-04-27T00:46:22;100728.19;;;15.93;33.77
22000;BME280;11164;48.818;2.322;2023-04-27T00:48:48;100734.31;;;15.88;34.04
22000;BME280;11164;48.818;2.322;2023-04-27T00:51:14;100725.63;;;15.98;33.63
22000;BME280;11164;48.818;2.322;2023-04-27T00:53:40;100734.22;;;15.95;33.93
22000;BME280;11164;48.818;2.322;2023-04-27T00:56:06;100726.34;;;16.05;33.77
22000;BME280;11164;48.818;2.322;2023-04-27T00:58:31;100717.34;;;16.05;33.72
22000;BME280;11164;48.818;2.322;2023-04-27T01:00:57;100717.59;;;16.03;33.60
22000;BME280;11164;48.818;2.322;2023-04-27T01:03:23;100726.97;;;16.19;33.48
22000;BME280;11164;48.818;2.322;2023-04-27T01:05:50;100728.25;;;16.17;33.61
22000;BME280;11164;48.818;2.322;2023-04-27T01:08:15;100723.41;;;16.07;33.58
22000;BME280;11164;48.818;2.322;2023-04-27T01:10:41;100728.47;;;16.03;33.61
22000;BME280;11164;48.818;2.322;2023-04-27T01:13:06;100714.25;;;16.01;33.71
22000;BME280;11164;48.818;2.322;2023-04-27T01:15:31;100712.88;;;16.10;33.23
22000;BME280;11164;48.818;2.322;2023-04-27T01:17:58;100720.81;;;16.12;33.60
22000;BME280;11164;48.818;2.322;2023-04-27T01:20:24;100728.47;;;16.15;33.46
22000;BME280;11164;48.818;2.322;2023-04-27T01:22:49;100725.41;;;16.11;33.65
22000;BME280;11164;48.818;2.322;2023-04-27T01:25:14;100736.75;;;16.08;33.51
22000;BME280;11164;48.818;2.322;2023-04-27T01:27:40;100733.78;;;15.98;34.04
22000;BME280;11164;48.818;2.322;2023-04-27T01:30:06;100731.28;;;15.97;33.88
22000;BME280;11164;48.818;2.322;2023-04-27T01:32:31;100728.47;;;16.03;33.85
22000;BME280;11164;48.818;2.322;2023-04-27T01:34:56;100735.22;;;16.12;33.55
22000;BME280;11164;48.818;2.322;2023-04-27T01:37:22;100737.94;;;16.12;33.60
22000;BME280;11164;48.818;2.322;2023-04-27T01:39:47;100729.19;;;16.10;33.60
22000;BME280;11164;48.818;2.322;2023-04-27T01:42:12;100725.63;;;15.98;33.74
22000;BME280;11164;48.818;2.322;2023-04-27T01:44:38;100727.34;;;15.92;34.00
22000;BME280;11164;48.818;2.322;2023-04-27T01:47:03;100712.13;;;15.91;33.84
22000;BME280;11164;48.818;2.322;2023-04-27T01:49:28;100713.97;;;15.91;33.99
22000;BME280;11164;48.818;2.322;2023-04-27T01:51:54;100707.72;;;15.90;34.17
22000;BME280;11164;48.818;2.322;2023-04-27T01:54:19;100708.81;;;15.89;34.06
22000;BME280;11164;48.818;2.322;2023-04-27T01:56:45;100703.31;;;15.78;34.30
22000;BME280;11164;48.818;2.322;2023-04-27T01:59:10;100703.47;;;15.64;34.56
22000;BME280;11164;48.818;2.322;2023-04-27T02:01:35;100709.94;;;15.63;34.76
22000;BME280;11164;48.818;2.322;2023-04-27T02:04:01;100702.59;;;15.52;34.75
22000;BME280;11164;48.818;2.322;2023-04-27T02:06:26;100703.91;;;15.61;34.60
22000;BME280;11164;48.818;2.322;2023-04-27T02:08:51;100685.75;;;15.62;34.54
22000;BME280;11164;48.818;2.322;2023-04-27T02:11:17;100703.78;;;15.74;34.42
22000;BME280;11164;48.818;2.322;2023-04-27T02:13:43;100709.13;;;15.63;34.54
22000;BME280;11164;48.818;2.322;2023-04-27T02:16:08;100705.50;;;15.69;34.64
22000;BME280;11164;48.818;2.322;2023-04-27T02:18:33;100692.91;;;15.74;34.36
22000;BME280;11164;48.818;2.322;2023-04-27T02:20:59;100694.94;;;15.79;34.17
22000;BME280;11164;48.818;2.322;2023-04-27T02:23:24;100699.66;;;15.84;34.29
22000;BME280;11164;48.818;2.322;2023-04-27T02:25:51;100703.91;;;15.80;34.26
22000;BME280;11164;48.818;2.322;2023-04-27T02:28:16;100706.53;;;15.86;34.07
22000;BME280;11164;48.818;2.322;2023-04-27T02:30:42;100706.63;;;15.80;34.44
22000;BME280;11164;48.818;2.322;2023-04-27T02:33:07;100714.34;;;15.83;34.46
22000;BME280;11164;48.818;2.322;2023-04-27T02:35:32;100713.03;;;15.85;34.28
22000;BME280;11164;48.818;2.322;2023-04-27T02:37:58;100708.19;;;15.87;34.08
22000;BME280;11164;48.818;2.322;2023-04-27T02:40:23;100709.84;;;15.88;34.37
22000;BME280;11164;48.818;2.322;2023-04-27T02:42:49;100701.88;;;15.75;34.44
22000;BME280;11164;48.818;2.322;2023-04-27T02:45:15;100711.94;;;15.74;34.70
22000;BME280;11164;48.818;2.322;2023-04-27T02:47:40;100703.38;;;15.71;34.60
22000;BME280;11164;48.818;2.322;2023-04-27T02:50:06;100712.56;;;15.70;34.76
22000;BME280;11164;48.818;2.322;2023-04-27T02:52:31;100711.31;;;15.72;34.60
22000;BME280;11164;48.818;2.322;2023-04-27T02:54:57;100707.94;;;15.59;34.71
22000;BME280;11164;48.818;2.322;2023-04-27T02:57:22;100710.94;;;15.69;34.75
22000;BME280;11164;48.818;2.322;2023-04-27T02:59:47;100721.75;;;15.75;34.52
22000;BME280;11164;48.818;2.322;2023-04-27T03:02:13;100717.88;;;15.83;34.47
22000;BME280;11164;48.818;2.322;2023-04-27T03:04:38;100721.53;;;15.89;34.48
22000;BME280;11164;48.818;2.322;2023-04-27T03:07:03;100717.50;;;15.80;34.48
22000;BME280;11164;48.818;2.322;2023-04-27T03:09:29;100724.97;;;15.84;34.64
22000;BME280;11164;48.818;2.322;2023-04-27T03:11:54;100715.53;;;15.87;34.25
22000;BME280;11164;48.818;2.322;2023-04-27T03:14:19;100703.78;;;15.74;34.50
22000;BME280;11164;48.818;2.322;2023-04-27T03:16:45;100713.75;;;15.62;34.82
22000;BME280;11164;48.818;2.322;2023-04-27T03:19:10;100706.84;;;15.60;34.78
22000;BME280;11164;48.818;2.322;2023-04-27T03:21:36;100720.09;;;15.74;34.79
22000;BME280;11164;48.818;2.322;2023-04-27T03:24:01;100720.91;;;15.75;34.60
22000;BME280;11164;48.818;2.322;2023-04-27T03:26:27;100720.69;;;15.77;34.43
22000;BME280;11164;48.818;2.322;2023-04-27T03:28:53;100709.84;;;15.88;34.31
22000;BME280;11164;48.818;2.322;2023-04-27T03:31:18;100719.06;;;15.87;34.53
22000;BME280;11164;48.818;2.322;2023-04-27T03:33:43;100716.31;;;15.75;34.58
22000;BME280;11164;48.818;2.322;2023-04-27T03:36:09;100715.84;;;15.79;34.51
22000;BME280;11164;48.818;2.322;2023-04-27T03:38:37;100700.28;;;15.67;34.55
22000;BME280;11164;48.818;2.322;2023-04-27T03:41:02;100716.00;;;15.65;34.74
22000;BME280;11164;48.818;2.322;2023-04-27T03:43:29;100719.78;;;15.64;35.01
22000;BME280;11164;48.818;2.322;2023-04-27T03:45:54;100708.75;;;15.59;34.78
22000;BME280;11164;48.818;2.322;2023-04-27T03:48:20;100710.78;;;15.64;34.84
22000;BME280;11164;48.818;2.322;2023-04-27T03:50:46;100703.78;;;15.56;35.07
22000;BME280;11164;48.818;2.322;2023-04-27T03:53:12;100710.72;;;15.52;34.88
22000;BME280;11164;48.818;2.322;2023-04-27T03:55:42;100716.03;;;15.47;35.05
22000;BME280;11164;48.818;2.322;2023-04-27T03:58:08;100712.94;;;15.43;35.07
22000;BME280;11164;48.818;2.322;2023-04-27T04:00:37;100714.06;;;15.35;35.21
22000;BME280;11164;48.818;2.322;2023-04-27T04:03:03;100719.75;;;15.34;35.30
22000;BME280;11164;48.818;2.322;2023-04-27T04:05:28;100716.78;;;15.35;35.34
22000;BME280;11164;48.818;2.322;2023-04-27T04:07:57;100716.78;;;15.35;35.29
22000;BME280;11164;48.818;2.322;2023-04-27T04:10:23;100716.97;;;15.22;35.49
22000;BME280;11164;48.818;2.322;2023-04-27T04:12:48;100713.16;;;15.23;35.41
22000;BME280;11164;48.818;2.322;2023-04-27T04:15:14;100706.75;;;15.17;35.42
22000;BME280;11164;48.818;2.322;2023-04-27T04:17:39;100717.47;;;15.31;35.38
22000;BME280;11164;48.818;2.322;2023-04-27T04:20:05;100717.03;;;15.34;35.29
22000;BME280;11164;48.818;2.322;2023-04-27T04:22:32;100715.59;;;15.31;35.25
22000;BME280;11164;48.818;2.322;2023-04-27T04:24:58;100709.41;;;15.24;35.42
22000;BME280;11164;48.818;2.322;2023-04-27T04:27:23;100716.97;;;15.22;35.43
22000;BME280;11164;48.818;2.322;2023-04-27T04:29:48;100725.78;;;15.36;35.32
22000;BME280;11164;48.818;2.322;2023-04-27T04:32:14;100726.28;;;15.45;35.01
22000;BME280;11164;48.818;2.322;2023-04-27T04:34:42;100725.94;;;15.41;34.58
22000;BME280;11164;48.818;2.322;2023-04-27T04:37:07;100717.47;;;15.31;35.28
22000;BME280;11164;48.818;2.322;2023-04-27T04:39:33;100722.06;;;15.30;35.46
22000;BME280;11164;48.818;2.322;2023-04-27T04:41:58;100714.31;;;15.34;35.37
22000;BME280;11164;48.818;2.322;2023-04-27T04:44:23;100713.16;;;15.42;35.37
22000;BME280;11164;48.818;2.322;2023-04-27T04:46:49;100713.47;;;15.33;35.42
22000;BME280;11164;48.818;2.322;2023-04-27T04:49:15;100709.78;;;15.28;35.57
22000;BME280;11164;48.818;2.322;2023-04-27T04:51:41;100707.56;;;15.18;35.70
22000;BME280;11164;48.818;2.322;2023-04-27T04:54:07;100699.59;;;15.23;35.47
22000;BME280;11164;48.818;2.322;2023-04-27T04:56:33;100708.25;;;15.32;35.52
22000;BME280;11164;48.818;2.322;2023-04-27T04:58:58;100710.28;;;15.36;35.50
22000;BME280;11164;48.818;2.322;2023-04-27T05:01:23;100706.25;;;15.27;35.72
22000;BME280;11164;48.818;2.322;2023-04-27T05:03:49;100714.31;;;15.34;35.54
22000;BME280;11164;48.818;2.322;2023-04-27T05:06:14;100719.28;;;15.37;35.64
22000;BME280;11164;48.818;2.322;2023-04-27T05:08:39;100710.91;;;15.38;35.50
22000;BME280;11164;48.818;2.322;2023-04-27T05:11:05;100712.94;;;15.43;35.50
22000;BME280;11164;48.818;2.322;2023-04-27T05:13:30;100717.19;;;15.39;35.47
22000;BME280;11164;48.818;2.322;2023-04-27T05:15:56;100718.06;;;15.51;35.35
22000;BME280;11164;48.818;2.322;2023-04-27T05:18:21;100715.66;;;15.43;35.33
22000;BME280;11164;48.818;2.322;2023-04-27T05:20:46;100717.94;;;15.46;35.48
22000;BME280;11164;48.818;2.322;2023-04-27T05:23:12;100718.66;;;15.53;35.41
22000;BME280;11164;48.818;2.322;2023-04-27T05:25:37;100719.84;;;15.76;35.06
22000;BME280;11164;48.818;2.322;2023-04-27T05:28:09;100728.19;;;15.93;34.68
22000;BME280;11164;48.818;2.322;2023-04-27T05:30:35;100721.91;;;15.92;34.95
22000;BME280;11164;48.818;2.322;2023-04-27T05:33:04;100719.69;;;15.89;35.02
22000;BME280;11164;48.818;2.322;2023-04-27T05:35:30;100717.31;;;15.93;34.99
22000;BME280;11164;48.818;2.322;2023-04-27T05:37:56;100694.56;;;15.75;35.14
22000;BME280;11164;48.818;2.322;2023-04-27T05:40:22;100702.72;;;15.75;35.27
22000;BME280;11164;48.818;2.322;2023-04-27T05:42:47;100711.63;;;15.83;35.07
22000;BME280;11164;48.818;2.322;2023-04-27T05:45:13;100711.13;;;15.86;35.13
22000;BME280;11164;48.818;2.322;2023-04-27T05:47:38;100705.56;;;15.81;35.17
22000;BME280;11164;48.818;2.322;2023-04-27T05:50:04;100709.75;;;15.95;34.91
22000;BME280;11164;48.818;2.322;2023-04-27T05:52:30;100710.03;;;16.05;34.70
22000;BME280;11164;48.818;2.322;2023-04-27T05:54:56;100707.09;;;16.19;34.56
22000;BME280;11164;48.818;2.322;2023-04-27T05:57:23;100709.34;;;16.22;34.58
22000;BME280;11164;48.818;2.322;2023-04-27T05:59:48;100705.91;;;16.15;34.62
22000;BME280;11164;48.818;2.322;2023-04-27T06:02:14;100708.53;;;16.21;34.72
22000;BME280;11164;48.818;2.322;2023-04-27T06:04:40;100715.38;;;16.12;35.04
22000;BME280;11164;48.818;2.322;2023-04-27T06:07:10;100716.50;;;16.04;35.31
22000;BME280;11164;48.818;2.322;2023-04-27T06:09:36;100712.88;;;16.22;34.82
22000;BME280;11164;48.818;2.322;2023-04-27T06:12:02;100710.91;;;16.41;34.55
22000;BME280;11164;48.818;2.322;2023-04-27T06:14:29;100720.63;;;16.37;34.75
22000;BME280;11164;48.818;2.322;2023-04-27T06:16:54;100719.91;;;16.42;34.88
22000;BME280;11164;48.818;2.322;2023-04-27T06:19:20;100707.97;;;16.55;34.47
22000;BME280;11164;48.818;2.322;2023-04-27T06:21:45;100714.59;;;16.59;34.39
22000;BME280;11164;48.818;2.322;2023-04-27T06:24:11;100712.00;;;16.52;34.58
22000;BME280;11164;48.818;2.322;2023-04-27T06:26:36;100716.53;;;16.70;34.27
22000;BME280;11164;48.818;2.322;2023-04-27T06:29:02;100711.19;;;16.63;34.55
22000;BME280;11164;48.818;2.322;2023-04-27T06:31:29;100714.59;;;16.59;34.75
22000;BME280;11164;48.818;2.322;2023-04-27T06:33:55;100716.41;;;16.77;34.26
22000;BME280;11164;48.818;2.322;2023-04-27T06:36:20;100708.59;;;16.80;34.05
22000;BME280;11164;48.818;2.322;2023-04-27T06:38:45;100715.66;;;17.17;34.08
22000;BME280;11164;48.818;2.322;2023-04-27T06:41:11;100721.72;;;17.07;34.15
22000;BME280;11164;48.818;2.322;2023-04-27T06:43:36;100717.47;;;17.11;33.82
22000;BME280;11164;48.818;2.322;2023-04-27T06:46:02;100729.66;;;17.09;34.16
22000;BME280;11164;48.818;2.322;2023-04-27T06:48:27;100724.19;;;17.09;34.10
22000;BME280;11164;48.818;2.322;2023-04-27T06:50:52;100731.56;;;16.96;34.33
22000;BME280;11164;48.818;2.322;2023-04-27T06:53:18;100727.78;;;16.97;34.13
22000;BME280;11164;48.818;2.322;2023-04-27T06:55:43;100722.56;;;16.96;34.23
22000;BME280;11164;48.818;2.322;2023-04-27T06:58:08;100715.91;;;17.03;33.73
22000;BME280;11164;48.818;2.322;2023-04-27T07:00:34;100721.59;;;17.14;34.01
22000;BME280;11164;48.818;2.322;2023-04-27T07:02:59;100721.47;;;17.20;33.78
22000;BME280;11164;48.818;2.322;2023-04-27T07:05:25;100727.34;;;17.53;33.24
22000;BME280;11164;48.818;2.322;2023-04-27T07:07:51;100726.22;;;17.66;33.50
22000;BME280;11164;48.818;2.322;2023-04-27T07:10:16;100719.94;;;17.65;33.10
22000;BME280;11164;48.818;2.322;2023-04-27T07:12:42;100727.69;;;17.56;33.15
22000;BME280;11164;48.818;2.322;2023-04-27T07:15:08;100719.09;;;17.65;33.22
22000;BME280;11164;48.818;2.322;2023-04-27T07:17:33;100703.06;;;17.68;33.37
22000;BME280;11164;48.818;2.322;2023-04-27T07:20:02;100706.16;;;17.72;33.01
22000;BME280;11164;48.818;2.322;2023-04-27T07:22:29;100705.13;;;17.61;33.28
22000;BME280;11164;48.818;2.322;2023-04-27T07:24:54;100704.06;;;17.91;32.81
22000;BME280;11164;48.818;2.322;2023-04-27T07:27:20;100696.31;;;17.99;32.39
22000;BME280;11164;48.818;2.322;2023-04-27T07:29:45;100702.25;;;17.96;32.60
22000;BME280;11164;48.818;2.322;2023-04-27T07:32:11;100692.22;;;18.31;31.75
22000;BME280;11164;48.818;2.322;2023-04-27T07:34:36;100701.66;;;18.57;31.40
22000;BME280;11164;48.818;2.322;2023-04-27T07:37:02;100708.69;;;18.92;31.38
22000;BME280;11164;48.818;2.322;2023-04-27T07:39:27;100712.06;;;18.99;31.07
22000;BME280;11164;48.818;2.322;2023-04-27T07:41:53;100706.28;;;18.96;31.09
22000;BME280;11164;48.818;2.322;2023-04-27T07:44:18;100710.16;;;19.00;31.18
22000;BME280;11164;48.818;2.322;2023-04-27T07:46:45;100712.56;;;18.96;30.90
22000;BME280;11164;48.818;2.322;2023-04-27T07:49:16;100711.09;;;19.05;30.90
22000;BME280;11164;48.818;2.322;2023-04-27T07:51:41;100705.97;;;19.09;30.72
22000;BME280;11164;48.818;2.322;2023-04-27T07:54:07;100707.34;;;19.11;30.97
22000;BME280;11164;48.818;2.322;2023-04-27T07:56:33;100709.38;;;18.82;31.29
22000;BME280;11164;48.818;2.322;2023-04-27T07:58:58;100710.00;;;18.67;31.21
22000;BME280;11164;48.818;2.322;2023-04-27T08:01:23;100694.47;;;18.90;30.93
22000;BME280;11164;48.818;2.322;2023-04-27T08:03:49;100707.34;;;19.11;30.70
22000;BME280;11164;48.818;2.322;2023-04-27T08:06:14;100720.50;;;19.15;30.26
22000;BME280;11164;48.818;2.322;2023-04-27T08:08:40;100719.19;;;19.39;29.78
22000;BME280;11164;48.818;2.322;2023-04-27T08:11:09;100721.22;;;19.27;29.60
22000;BME280;11164;48.818;2.322;2023-04-27T08:13:34;100713.78;;;19.22;30.08
22000;BME280;11164;48.818;2.322;2023-04-27T08:16:00;100719.69;;;19.14;30.15
22000;BME280;11164;48.818;2.322;2023-04-27T08:18:26;100716.63;;;19.10;30.21
22000;BME280;11164;48.818;2.322;2023-04-27T08:20:51;100720.44;;;19.09;29.85
22000;BME280;11164;48.818;2.322;2023-04-27T08:23:17;100712.03;;;19.38;29.45
22000;BME280;11164;48.818;2.322;2023-04-27T08:25:42;100719.56;;;19.26;29.62
22000;BME280;11164;48.818;2.322;2023-04-27T08:28:07;100703.66;;;19.45;29.28
22000;BME280;11164;48.818;2.322;2023-04-27T08:30:34;100688.41;;;19.76;28.92
22000;BME280;11164;48.818;2.322;2023-04-27T08:32:59;100692.94;;;19.87;28.79
22000;BME280;11164;48.818;2.322;2023-04-27T08:35:24;100689.94;;;19.89;28.90
22000;BME280;11164;48.818;2.322;2023-04-27T08:37:50;100691.38;;;19.97;28.80
22000;BME280;11164;48.818;2.322;2023-04-27T08:40:16;100690.41;;;20.08;29.07
22000;BME280;11164;48.818;2.322;2023-04-27T08:42:53;100690.66;;;20.44;26.37
22000;BME280;11164;48.818;2.322;2023-04-27T08:45:21;100696.06;;;20.34;28.59
22000;BME280;11164;48.818;2.322;2023-04-27T08:47:47;100699.44;;;20.41;28.62
22000;BME280;11164;48.818;2.322;2023-04-27T08:50:12;100699.50;;;20.51;28.41
22000;BME280;11164;48.818;2.322;2023-04-27T08:52:37;100699.16;;;20.80;28.15
22000;BME280;11164;48.818;2.322;2023-04-27T08:55:03;100687.31;;;20.69;28.50
22000;BME280;11164;48.818;2.322;2023-04-27T08:57:29;100683.06;;;20.51;28.52
22000;BME280;11164;48.818;2.322;2023-04-27T08:59:58;100678.03;;;20.38;28.75
22000;BME280;11164;48.818;2.322;2023-04-27T09:02:24;100683.28;;;20.44;28.45
22000;BME280;11164;48.818;2.322;2023-04-27T09:04:53;100681.81;;;20.64;28.21
22000;BME280;11164;48.818;2.322;2023-04-27T09:07:19;100678.91;;;20.81;27.99
22000;BME280;11164;48.818;2.322;2023-04-27T09:09:44;100672.16;;;20.56;28.47
22000;BME280;11164;48.818;2.322;2023-04-27T09:12:17;100683.81;;;20.79;27.61
22000;BME280;11164;48.818;2.322;2023-04-27T09:14:54;100675.94;;;20.88;28.10
22000;BME280;11164;48.818;2.322;2023-04-27T09:17:24;100683.91;;;20.99;27.61
22000;BME280;11164;48.818;2.322;2023-04-27T09:19:50;100687.13;;;20.81;28.22
22000;BME280;11164;48.818;2.322;2023-04-27T09:22:15;100683.19;;;20.67;28.27
22000;BME280;11164;48.818;2.322;2023-04-27T09:24:50;100679.91;;;20.70;27.13
22000;BME280;11164;48.818;2.322;2023-04-27T09:27:19;100683.22;;;20.72;27.84
22000;BME280;11164;48.818;2.322;2023-04-27T09:29:46;100683.22;;;20.72;27.99
22000;BME280;11164;48.818;2.322;2023-04-27T09:32:15;100681.09;;;20.79;28.06
22000;BME280;11164;48.818;2.322;2023-04-27T09:34:41;100680.13;;;21.11;27.84
22000;BME280;11164;48.818;2.322;2023-04-27T09:37:07;100676.53;;;21.79;27.25
22000;BME280;11164;48.818;2.322;2023-04-27T09:39:34;100690.31;;;22.09;26.86
22000;BME280;11164;48.818;2.322;2023-04-27T09:42:01;100681.50;;;21.92;27.02
22000;BME280;11164;48.818;2.322;2023-04-27T09:44:29;100680.06;;;21.74;27.52
22000;BME280;11164;48.818;2.322;2023-04-27T09:46:57;100674.34;;;21.86;27.25
22000;BME280;11164;48.818;2.322;2023-04-27T09:49:25;100666.41;;;22.10;27.12
22000;BME280;11164;48.818;2.322;2023-04-27T09:51:50;100675.47;;;22.26;27.18
22000;BME280;11164;48.818;2.322;2023-04-27T09:54:19;100658.63;;;21.45;27.61
22000;BME280;11164;48.818;2.322;2023-04-27T09:57:11;100676.78;;;21.77;26.73
22000;BME280;11164;48.818;2.322;2023-04-27T10:02:20;100679.88;;;21.96;27.44
22000;BME280;11164;48.818;2.322;2023-04-27T10:07:31;100675.47;;;22.00;27.32
22000;BME280;11164;48.818;2.322;2023-04-27T10:10:00;100676.00;;;21.87;27.44
22000;BME280;11164;48.818;2.322;2023-04-27T10:12:32;100674.34;;;21.86;27.18
22000;BME280;11164;48.818;2.322;2023-04-27T10:14:59;100667.50;;;22.24;26.97
22000;BME280;11164;48.818;2.322;2023-04-27T10:20:02;100655.69;;;22.29;26.62
22000;BME280;11164;48.818;2.322;2023-04-27T10:22:47;100657.59;;;21.77;25.91
22000;BME280;11164;48.818;2.322;2023-04-27T10:25:36;100658.34;;;21.57;27.17
22000;BME280;11164;48.818;2.322;2023-04-27T10:28:03;100656.53;;;22.04;27.03
22000;BME280;11164;48.818;2.322;2023-04-27T10:30:36;100648.81;;;22.31;26.59
22000;BME280;11164;48.818;2.322;2023-04-27T10:33:09;100650.19;;;22.34;26.20
22000;BME280;11164;48.818;2.322;2023-04-27T10:35:43;100647.16;;;22.46;26.22
22000;BME280;11164;48.818;2.322;2023-04-27T10:38:14;100656.25;;;22.10;26.80
22000;BME280;11164;48.818;2.322;2023-04-27T10:40:43;100648.56;;;22.12;27.03
22000;BME280;11164;48.818;2.322;2023-04-27T10:43:13;100651.00;;;21.93;27.15
22000;BME280;11164;48.818;2.322;2023-04-27T10:45:41;100647.19;;;22.30;26.80
22000;BME280;11164;48.818;2.322;2023-04-27T10:48:06;100648.50;;;22.54;26.67
22000;BME280;11164;48.818;2.322;2023-04-27T10:50:32;100650.19;;;22.44;26.52
22000;BME280;11164;48.818;2.322;2023-04-27T10:53:05;100652.38;;;22.47;25.68
22000;BME280;11164;48.818;2.322;2023-04-27T10:55:32;100651.25;;;22.69;26.41
22000;BME280;11164;48.818;2.322;2023-04-27T10:57:58;100644.34;;;22.77;26.11
22000;BME280;11164;48.818;2.322;2023-04-27T11:00:32;100641.91;;;22.60;26.53
22000;BME280;11164;48.818;2.322;2023-04-27T11:03:30;100637.19;;;22.91;25.26
22000;BME280;11164;48.818;2.322;2023-04-27T11:06:01;100629.16;;;23.00;25.71
22000;BME280;11164;48.818;2.322;2023-04-27T11:08:28;100627.13;;;23.26;25.79
22000;BME280;11164;48.818;2.322;2023-04-27T11:10:55;100621.09;;;23.64;25.78
22000;BME280;11164;48.818;2.322;2023-04-27T11:13:25;100610.22;;;23.48;25.11
22000;BME280;11164;48.818;2.322;2023-04-27T11:15:55;100618.00;;;23.36;25.73
22000;BME280;11164;48.818;2.322;2023-04-27T11:18:23;100625.56;;;23.59;25.63
22000;BME280;11164;48.818;2.322;2023-04-27T11:20:50;100618.25;;;23.79;25.68
22000;BME280;11164;48.818;2.322;2023-04-27T11:23:27;100598.75;;;24.10;24.75
22000;BME280;11164;48.818;2.322;2023-04-27T11:25:53;100597.41;;;24.31;25.70
22000;BME280;11164;48.818;2.322;2023-04-27T11:28:19;100590.50;;;24.34;25.40
22000;BME280;11164;48.818;2.322;2023-04-27T11:30:46;100596.31;;;24.03;25.73
22000;BME280;11164;48.818;2.322;2023-04-27T11:33:13;100599.50;;;24.15;25.60
22000;BME280;11164;48.818;2.322;2023-04-27T11:35:39;100579.31;;;23.96;25.77
22000;BME280;11164;48.818;2.322;2023-04-27T11:38:04;100577.59;;;24.29;25.43
22000;BME280;11164;48.818;2.322;2023-04-27T11:40:29;100586.16;;;24.52;25.25
22000;BME280;11164;48.818;2.322;2023-04-27T11:42:59;100568.88;;;24.46;24.83
22000;BME280;11164;48.818;2.322;2023-04-27T11:45:28;100563.66;;;24.45;25.11
22000;BME280;11164;48.818;2.322;2023-04-27T11:47:53;100560.03;;;24.49;25.02
22000;BME280;11164;48.818;2.322;2023-04-27T11:50:18;100558.06;;;24.55;24.81
22000;BME280;11164;48.818;2.322;2023-04-27T11:52:47;100551.81;;;24.20;24.15
22000;BME280;11164;48.818;2.322;2023-04-27T11:55:13;100552.78;;;24.05;25.50
22000;BME280;11164;48.818;2.322;2023-04-27T11:57:41;100551.72;;;23.67;25.80
22000;BME280;11164;48.818;2.322;2023-04-27T12:00:07;100546.59;;;23.55;25.64
22000;BME280;11164;48.818;2.322;2023-04-27T12:02:36;100551.03;;;23.85;25.43
22000;BME280;11164;48.818;2.322;2023-04-27T12:05:02;100556.25;;;23.87;25.40
22000;BME280;11164;48.818;2.322;2023-04-27T12:07:28;100555.00;;;23.69;25.38
22000;BME280;11164;48.818;2.322;2023-04-27T12:09:54;100545.84;;;24.13;25.17
22000;BME280;11164;48.818;2.322;2023-04-27T12:12:19;100543.22;;;24.51;24.33
22000;BME280;11164;48.818;2.322;2023-04-27T12:14:48;100549.66;;;24.41;24.52
22000;BME280;11164;48.818;2.322;2023-04-27T12:17:14;100545.69;;;23.99;24.93
22000;BME280;11164;48.818;2.322;2023-04-27T12:19:40;100535.84;;;23.93;24.83
22000;BME280;11164;48.818;2.322;2023-04-27T12:22:05;100539.50;;;24.36;24.84
22000;BME280;11164;48.818;2.322;2023-04-27T12:24:30;100536.25;;;24.05;24.95
22000;BME280;11164;48.818;2.322;2023-04-27T12:26:56;100538.78;;;24.02;25.11
22000;BME280;11164;48.818;2.322;2023-04-27T12:29:22;100541.00;;;23.99;24.80
22000;BME280;11164;48.818;2.322;2023-04-27T12:31:48;100535.78;;;23.98;24.86
22000;BME280;11164;48.818;2.322;2023-04-27T12:34:14;100534.06;;;23.73;24.96
22000;BME280;11164;48.818;2.322;2023-04-27T12:36:39;100532.22;;;23.97;24.94
22000;BME280;11164;48.818;2.322;2023-04-27T12:39:16;100542.59;;;24.06;24.30
22000;BME280;11164;48.818;2.322;2023-04-27T12:41:43;100533.22;;;24.31;24.77
22000;BME280;11164;48.818;2.322;2023-04-27T12:44:09;100535.00;;;24.46;24.24
22000;BME280;11164;48.818;2.322;2023-04-27T12:46:35;100516.63;;;23.83;25.14
22000;BME280;11164;48.818;2.322;2023-04-27T12:49:00;100524.66;;;24.08;24.73
22000;BME280;11164;48.818;2.322;2023-04-27T12:51:26;100520.22;;;24.12;24.52
22000;BME280;11164;48.818;2.322;2023-04-27T12:53:52;100517.47;;;24.12;24.85